METAR Data
IDs: Format: Raw Decoded Include TAF

Data at: 0046 UTC 20 Jul 2019

METAR for:KAXA (Algona Muni, IA, US)
Text:KAXA 200035Z AUTO 22014KT 10SM CLR 32/28 A2967 RMK A01
Temperature: 32.0°C ( 90°F)
Dewpoint: 28.0°C ( 82°F) [RH = 80%]
Pressure (altimeter):29.67 inches Hg (1004.8 mb)
Winds:from the SW (220 degrees) at 16 MPH (14 knots; 7.2 m/s)
Visibility:10 or more sm (16+ km)
Ceiling:at least 12,000 feet AGL
Clouds:sky clear below 12,000 feet AGL
QC Flag:automated observation with no human augmentation